Minneapolis, Minnesota
Traffic Map
Current Weather Conditions
Minneapolis, Minnesota
Overcast
Overcast

Feels Like: 2°
Wind Chill: Ceiling: 15000
Heat Index: Visibility: 10mi
Dew Point: -3° Wind: 13mph
Humidity: 53% Direction: 140° (SE)
Pressure: 30.09in Gusts: 0mph
Raw Report DataKMSP 231053Z 14011KT 10SM OVC150 06/M03 A3009 RMK AO2 SLP194 T00611028
Traffic Incident Summary
Active as of:
Severity:
Category:
InformationThere was an issue retrieving the traffic information for this location. Please try a different location or try again shortly.
Advertisements
At Last! Intellicast now available for iPhone and Android